Morgantown, West Virginia
Current Conditions -  °F | °C
As of 8:53 PM on Thursday 18 Dec 2014 (Local Time) from KMGW Reporting Station
Light Snow Light Snow  
Wind Chill: 22°   Ceiling: 4800
Heat Index: 27°   Visibility: 5mi
Dew Point: 20°   Wind: 5mph
Humidity: 75%   Direction: 240°WSW
Pressure: 30.16"   Gusts: NA
Location:  39.63°N, 79.96°W
Report Text: KMGW 190153Z 24004KT 5SM -SN OVC048 M03/M07 A3016 RMK AO2 SLP229 P0000 T10281067
Loading
Personal Weather Stations






























Interactive Weather Map New forecast layout! Learn more

10-Day Weather Forecast

Advertisements
Track Severe Weather on mobile